Fulmar — WDD3992 — position and weather

sailwx.info

Track history (hours):
 
Tides and Currents Weather Stations Pressure Air Temp Water Temp Dewpoint Dewpoint Depression Visibility Wind Speed Wind Dir Waves Ship Positions

Oceanographic research ship Fulmar (United States)

Owner: NOAA R/V Fulmar, Monterey, CA. More information available from US FCC via Universal Licensing System.

Last reported at 2017-Sep-25 00:19 UTC. Time now 2017-Sep-25 11:51 UTC.
Position N 37°52' W 122°29'.

Length 20 m; draft 2 m.

Type: Ship. MMSI: 367139040.

Date/timePositionNaut miles runAvg speedWind from/ knotsBaromVisibWave heightAir tempDewpointWater temp
2017-Sep-25 00:19N 37°52' W 122°29'1 2.1
2017-Sep-25 00:00N 37°52' W 122°29'612.3
2017-Sep-24 23:30N 37°46' W 122°31'3 6.7
2017-Sep-24 23:00N 37°44' W 122°35'710.3
2017-Sep-24 22:17N 37°44' W 122°44'1 3.6
2017-Sep-24 21:54N 37°44' W 122°46'410.5
2017-Sep-24 21:30N 37°44' W 122°51'2 3.6
2017-Sep-24 21:00N 37°44' W 122°54'510.6
2017-Sep-24 20:30N 37°44' W 123°00'2 3.3
2017-Sep-24 20:00N 37°44' W 123°03'4 8.4
2017-Sep-24 19:30N 37°43' W 123°08'3 4.8
2017-Sep-24 18:52N 37°43' W 123°12'1 3.8
2017-Sep-24 18:30N 37°43' W 123°13'0 0.8
2017-Sep-24 18:00N 37°43' W 123°14'3 4.4
2017-Sep-24 17:21N 37°43' W 123°10'1 1.7
2017-Sep-24 17:00N 37°43' W 123°10'1 1.2
2017-Sep-24 16:31N 37°44' W 123°09'916.7
2017-Sep-24 16:00N 37°45' W 122°58'816.8
2017-Sep-24 15:30N 37°46' W 122°48'917.1
2017-Sep-24 14:59N 37°48' W 122°37'714.8
2017-Sep-24 14:31N 37°50' W 122°28'2 4.6
2017-Sep-24 13:59N 37°52' W 122°29'0 0.0
2017-Sep-24 13:30N 37°52' W 122°29'0 0.0
2017-Sep-23 23:05N 37°52' W 122°29'0 0.0
2017-Sep-23 23:00N 37°52' W 122°29'4 7.6
2017-Sep-23 22:31N 37°48' W 122°30'16 8.8
2017-Sep-23 20:44N 37°39' W 122°46'410.9
2017-Sep-23 20:24N 37°39' W 122°50'410.5
2017-Sep-23 20:00N 37°39' W 122°56'  
2017-Sep-18 22:25N 37°52' W 122°29'1 2.2
2017-Sep-18 22:00N 37°51' W 122°28'4 7.3
2017-Sep-18 21:31N 37°49' W 122°25'714.2
2017-Sep-18 20:59N 37°45' W 122°33'714.8
2017-Sep-18 20:29N 37°38' W 122°33'816.9
2017-Sep-18 20:00N 37°30' W 122°33'917.4
2017-Sep-18 19:30N 37°21' W 122°30'5116.4
2017-Sep-18 16:22N 36°38' W 121°54'2 5.4
2017-Sep-18 16:00N 36°37' W 121°54'  
2017-Sep-15 20:46N 36°37' W 121°54'0 0.3
2017-Sep-15 20:27N 36°37' W 121°54'0 0.1
2017-Sep-15 20:00N 36°37' W 121°54'0 0.1
2017-Sep-15 19:27N 36°37' W 121°54'0 0.0
2017-Sep-15 19:00N 36°37' W 121°54'2 0.5
2017-Sep-15 14:52N 36°38' W 121°53'2 5.2
2017-Sep-15 14:30N 36°37' W 121°54'0 0.0
2017-Sep-15 14:00N 36°37' W 121°54'  
Track history (hours):
 
Tides and Currents Weather Stations Pressure Air Temp Water Temp Dewpoint Dewpoint Depression Visibility Wind Speed Wind Dir Waves Ship Positions

Oceanographic research ship Fulmar (United States)

Owner: NOAA R/V Fulmar, Monterey, CA. More information available from US FCC via Universal Licensing System.

Last reported at 2017-Sep-25 00:19 UTC. Time now 2017-Sep-25 11:51 UTC.
Position N 37°52' W 122°29'.

Length 20 m; draft 2 m.

Type: Ship. MMSI: 367139040.

Date/timePositionNaut miles runAvg speedWind from/ knotsBaromVisibWave heightAir tempDewpointWater temp
2017-Sep-25 00:19N 37°52' W 122°29'1 2.1
2017-Sep-25 00:00N 37°52' W 122°29'612.3
2017-Sep-24 23:30N 37°46' W 122°31'3 6.7
2017-Sep-24 23:00N 37°44' W 122°35'710.3
2017-Sep-24 22:17N 37°44' W 122°44'1 3.6
2017-Sep-24 21:54N 37°44' W 122°46'410.5
2017-Sep-24 21:30N 37°44' W 122°51'2 3.6
2017-Sep-24 21:00N 37°44' W 122°54'510.6
2017-Sep-24 20:30N 37°44' W 123°00'2 3.3
2017-Sep-24 20:00N 37°44' W 123°03'4 8.4
2017-Sep-24 19:30N 37°43' W 123°08'3 4.8
2017-Sep-24 18:52N 37°43' W 123°12'1 3.8
2017-Sep-24 18:30N 37°43' W 123°13'0 0.8
2017-Sep-24 18:00N 37°43' W 123°14'3 4.4
2017-Sep-24 17:21N 37°43' W 123°10'1 1.7
2017-Sep-24 17:00N 37°43' W 123°10'1 1.2
2017-Sep-24 16:31N 37°44' W 123°09'916.7
2017-Sep-24 16:00N 37°45' W 122°58'816.8
2017-Sep-24 15:30N 37°46' W 122°48'917.1
2017-Sep-24 14:59N 37°48' W 122°37'714.8
2017-Sep-24 14:31N 37°50' W 122°28'2 4.6
2017-Sep-24 13:59N 37°52' W 122°29'0 0.0
2017-Sep-24 13:30N 37°52' W 122°29'0 0.0
2017-Sep-23 23:05N 37°52' W 122°29'0 0.0
2017-Sep-23 23:00N 37°52' W 122°29'4 7.6
2017-Sep-23 22:31N 37°48' W 122°30'16 8.8
2017-Sep-23 20:44N 37°39' W 122°46'410.9
2017-Sep-23 20:24N 37°39' W 122°50'410.5
2017-Sep-23 20:00N 37°39' W 122°56'  
2017-Sep-18 22:25N 37°52' W 122°29'1 2.2
2017-Sep-18 22:00N 37°51' W 122°28'4 7.3
2017-Sep-18 21:31N 37°49' W 122°25'714.2
2017-Sep-18 20:59N 37°45' W 122°33'714.8
2017-Sep-18 20:29N 37°38' W 122°33'816.9
2017-Sep-18 20:00N 37°30' W 122°33'917.4
2017-Sep-18 19:30N 37°21' W 122°30'5116.4
2017-Sep-18 16:22N 36°38' W 121°54'2 5.4
2017-Sep-18 16:00N 36°37' W 121°54'  
2017-Sep-15 20:46N 36°37' W 121°54'0 0.3
2017-Sep-15 20:27N 36°37' W 121°54'0 0.1
2017-Sep-15 20:00N 36°37' W 121°54'0 0.1
2017-Sep-15 19:27N 36°37' W 121°54'0 0.0
2017-Sep-15 19:00N 36°37' W 121°54'2 0.5
2017-Sep-15 14:52N 36°38' W 121°53'2 5.2
2017-Sep-15 14:30N 36°37' W 121°54'0 0.0
2017-Sep-15 14:00N 36°37' W 121°54'  

Dump ship's entire track history